Time;durP1;ratioP1;P1;durP2;ratioP2;P2;SDS_P1;SDS_P2;PMS_P1;PMS_P2;Temp;Humidity;BMP_temperature;BMP_pressure;BME280_temperature;BME280_humidity;BME280_pressure;Samples;Min_cycle;Max_cycle;Signal;HPM_P1;HPM_P2
2023/09/08 00:01:42;;;;;;;26.70;24.93;;;;;;;;;;5052548;28;20421;-79
2023/09/08 00:04:09;;;;;;;26.73;25.13;;;;;;;;;;5052806;28;20455;-79
2023/09/08 00:06:36;;;;;;;26.27;24.57;;;;;;;;;;5052836;28;20556;-80
2023/09/08 00:09:05;;;;;;;27.37;24.97;;;;;;;;;;5056414;28;20462;-79
2023/09/08 00:11:32;;;;;;;26.60;24.90;;;;;;;;;;5054678;28;20443;-79
2023/09/08 00:13:59;;;;;;;26.10;24.50;;;;;;;;;;5056578;28;20453;-80
2023/09/08 00:16:29;;;;;;;25.37;23.57;;;;;;;;;;5055857;28;20424;-79
2023/09/08 00:18:58;;;;;;;26.57;24.93;;;;;;;;;;5055720;28;20445;-79
2023/09/08 00:21:25;;;;;;;27.60;25.73;;;;;;;;;;5055806;28;20913;-79
2023/09/08 00:23:52;;;;;;;26.43;24.73;;;;;;;;;;5056169;28;20445;-79
2023/09/08 00:26:20;;;;;;;25.30;23.80;;;;;;;;;;5055699;28;20494;-79
2023/09/08 00:28:47;;;;;;;25.87;24.07;;;;;;;;;;5056763;28;20461;-79
2023/09/08 00:31:14;;;;;;;26.03;24.30;;;;;;;;;;5056380;28;21316;-79
2023/09/08 00:33:43;;;;;;;26.27;24.47;;;;;;;;;;5056152;28;20499;-79
2023/09/08 00:36:10;;;;;;;25.97;24.37;;;;;;;;;;5055846;28;20512;-79
2023/09/08 00:38:38;;;;;;;26.07;24.20;;;;;;;;;;5058370;28;20837;-79
2023/09/08 00:41:05;;;;;;;26.40;24.80;;;;;;;;;;5075682;28;20788;-79
2023/09/08 00:43:32;;;;;;;25.97;24.27;;;;;;;;;;5076020;28;20813;-78
2023/09/08 00:46:02;;;;;;;25.87;24.30;;;;;;;;;;5075882;28;20464;-79
2023/09/08 00:48:29;;;;;;;26.50;24.70;;;;;;;;;;5075496;28;20424;-79
2023/09/08 00:50:58;;;;;;;25.53;24.00;;;;;;;;;;5075006;28;20552;-79
2023/09/08 00:53:25;;;;;;;26.00;24.43;;;;;;;;;;5075533;28;20423;-79
2023/09/08 00:55:53;;;;;;;26.17;24.23;;;;;;;;;;5074141;28;20445;-79
2023/09/08 00:58:20;;;;;;;25.40;23.60;;;;;;;;;;5062451;28;20454;-79
2023/09/08 01:00:47;;;;;;;25.87;24.17;;;;;;;;;;5057373;28;20446;-78
2023/09/08 01:03:14;;;;;;;25.97;24.40;;;;;;;;;;5055146;28;20931;-78
2023/09/08 01:05:41;;;;;;;26.73;24.93;;;;;;;;;;5054524;28;20505;-80
2023/09/08 01:08:10;;;;;;;26.00;24.40;;;;;;;;;;5055062;28;20443;-79
2023/09/08 01:10:37;;;;;;;25.37;23.70;;;;;;;;;;5055133;28;20441;-79
2023/09/08 01:13:05;;;;;;;25.97;24.37;;;;;;;;;;5055329;28;20433;-79
2023/09/08 01:15:32;;;;;;;25.63;23.67;;;;;;;;;;5054264;28;20481;-79
2023/09/08 01:17:59;;;;;;;24.97;23.57;;;;;;;;;;5054651;28;20446;-79
2023/09/08 01:20:29;;;;;;;25.03;23.43;;;;;;;;;;5055094;28;20453;-79
2023/09/08 01:23:04;;;;;;;26.00;24.40;;;;;;;;;;5054918;28;20428;-79
2023/09/08 01:25:33;;;;;;;24.77;23.07;;;;;;;;;;5055294;28;20456;-79
2023/09/08 01:28:02;;;;;;;24.80;23.40;;;;;;;;;;5054604;28;20431;-79
2023/09/08 01:30:32;;;;;;;25.60;24.00;;;;;;;;;;5054753;28;20468;-79
2023/09/08 01:33:00;;;;;;;25.17;23.67;;;;;;;;;;5056897;28;20680;-80
2023/09/08 01:35:27;;;;;;;25.97;24.17;;;;;;;;;;5075070;28;20438;-79
2023/09/08 01:37:54;;;;;;;24.77;23.30;;;;;;;;;;5074191;28;20490;-79
2023/09/08 01:40:21;;;;;;;24.97;23.20;;;;;;;;;;5074765;28;20481;-84
2023/09/08 01:42:50;;;;;;;25.13;23.73;;;;;;;;;;5075234;28;20511;-79
2023/09/08 01:45:17;;;;;;;24.37;22.97;;;;;;;;;;5075181;28;21256;-79
2023/09/08 01:47:44;;;;;;;24.83;23.37;;;;;;;;;;5073217;28;20952;-79
2023/09/08 01:50:11;;;;;;;25.10;23.60;;;;;;;;;;5074950;28;20462;-79
2023/09/08 01:52:38;;;;;;;25.07;23.20;;;;;;;;;;5074085;28;20896;-78
2023/09/08 01:55:07;;;;;;;25.37;23.87;;;;;;;;;;5073867;28;20441;-79
2023/09/08 01:57:34;;;;;;;25.23;23.57;;;;;;;;;;5080959;28;20869;-79
2023/09/08 02:00:02;;;;;;;26.10;24.40;;;;;;;;;;5074691;28;20444;-79
2023/09/08 02:02:29;;;;;;;24.87;23.27;;;;;;;;;;5074840;28;20442;-78
2023/09/08 02:04:56;;;;;;;24.67;23.27;;;;;;;;;;5074554;28;20424;-79
2023/09/08 02:07:23;;;;;;;24.27;22.77;;;;;;;;;;5057370;28;20487;-79
2023/09/08 02:09:51;;;;;;;26.20;24.43;;;;;;;;;;5054044;28;20445;-79
2023/09/08 02:12:18;;;;;;;26.20;24.30;;;;;;;;;;5055424;28;20503;-79
2023/09/08 02:14:45;;;;;;;25.10;23.53;;;;;;;;;;5056573;28;20470;-78
2023/09/08 02:17:13;;;;;;;25.47;23.80;;;;;;;;;;5055699;28;20905;-79
2023/09/08 02:19:40;;;;;;;24.90;23.30;;;;;;;;;;5056433;28;20449;-78
2023/09/08 02:22:07;;;;;;;25.30;23.60;;;;;;;;;;5055892;28;20463;-79
2023/09/08 02:24:34;;;;;;;25.70;24.10;;;;;;;;;;5055457;28;20475;-78
2023/09/08 02:27:01;;;;;;;25.10;23.57;;;;;;;;;;5052159;28;20490;-79
2023/09/08 02:29:28;;;;;;;25.37;23.73;;;;;;;;;;5052511;28;20839;-79
2023/09/08 02:31:55;;;;;;;24.30;22.80;;;;;;;;;;5052897;28;20420;-78
2023/09/08 02:34:24;;;;;;;24.57;23.07;;;;;;;;;;5052867;28;20482;-79
2023/09/08 02:36:51;;;;;;;24.80;23.20;;;;;;;;;;5052450;28;20450;-79
2023/09/08 02:39:18;;;;;;;24.50;23.00;;;;;;;;;;5055999;28;20523;-79
2023/09/08 02:41:45;;;;;;;25.20;23.60;;;;;;;;;;5061676;28;20417;-79
2023/09/08 02:44:12;;;;;;;24.77;23.37;;;;;;;;;;5067122;28;20493;-79
2023/09/08 02:46:39;;;;;;;25.20;23.17;;;;;;;;;;5058703;28;20468;-79
2023/09/08 02:49:08;;;;;;;25.10;23.37;;;;;;;;;;5055411;28;20510;-79
2023/09/08 02:51:37;;;;;;;25.93;24.43;;;;;;;;;;5053681;28;20449;-79
2023/09/08 02:54:04;;;;;;;24.93;23.23;;;;;;;;;;5053467;28;20461;-78
2023/09/08 02:56:31;;;;;;;25.10;23.50;;;;;;;;;;5051463;28;20447;-79
2023/09/08 02:58:58;;;;;;;25.43;23.83;;;;;;;;;;5069251;28;20463;-79
2023/09/08 03:01:25;;;;;;;24.30;23.00;;;;;;;;;;5067272;28;20500;-78
2023/09/08 03:03:52;;;;;;;25.20;23.80;;;;;;;;;;5072381;28;20896;-79
2023/09/08 03:06:20;;;;;;;24.50;23.10;;;;;;;;;;5062924;28;20472;-79
2023/09/08 03:08:49;;;;;;;26.33;24.40;;;;;;;;;;5072951;28;20566;-79
2023/09/08 03:11:16;;;;;;;26.27;24.30;;;;;;;;;;5072393;28;20457;-79
2023/09/08 03:13:43;;;;;;;25.17;23.47;;;;;;;;;;5072857;28;20452;-79
2023/09/08 03:16:10;;;;;;;25.63;24.03;;;;;;;;;;5071698;28;20462;-80
2023/09/08 03:18:38;;;;;;;25.30;23.70;;;;;;;;;;5072848;28;20446;-78
2023/09/08 03:21:09;;;;;;;25.73;24.17;;;;;;;;;;5071279;28;20428;-79
2023/09/08 03:23:36;;;;;;;25.23;23.83;;;;;;;;;;5072934;28;20431;-79
2023/09/08 03:26:05;;;;;;;24.43;22.93;;;;;;;;;;5072245;28;20891;-79
2023/09/08 03:28:32;;;;;;;25.50;24.00;;;;;;;;;;5072335;28;20465;-79
2023/09/08 03:30:59;;;;;;;25.20;23.70;;;;;;;;;;5072452;28;20429;-79
2023/09/08 03:33:26;;;;;;;25.60;23.90;;;;;;;;;;5072752;28;21110;-79
2023/09/08 03:35:55;;;;;;;25.57;24.03;;;;;;;;;;5072192;28;20440;-79
2023/09/08 03:38:22;;;;;;;25.43;23.93;;;;;;;;;;5071767;28;20432;-79
2023/09/08 03:40:49;;;;;;;26.40;24.73;;;;;;;;;;5072800;28;20433;-79
2023/09/08 03:43:17;;;;;;;24.90;23.30;;;;;;;;;;5072674;28;20476;-79
2023/09/08 03:45:44;;;;;;;26.07;24.40;;;;;;;;;;5072307;28;20476;-78
2023/09/08 03:48:11;;;;;;;25.20;23.60;;;;;;;;;;5072149;28;20424;-78
2023/09/08 03:50:38;;;;;;;24.80;23.20;;;;;;;;;;5072692;28;20468;-79
2023/09/08 03:53:06;;;;;;;25.00;23.50;;;;;;;;;;5072612;28;20532;-78
2023/09/08 03:55:33;;;;;;;25.20;23.60;;;;;;;;;;5072321;28;20904;-79
2023/09/08 03:58:00;;;;;;;24.90;23.40;;;;;;;;;;5072154;28;20457;-78
2023/09/08 04:00:28;;;;;;;25.67;24.07;;;;;;;;;;5072752;28;20452;-79
2023/09/08 04:02:56;;;;;;;26.50;24.60;;;;;;;;;;5072364;28;20436;-80
2023/09/08 04:05:23;;;;;;;25.50;24.00;;;;;;;;;;5073161;28;20519;-79
2023/09/08 04:07:50;;;;;;;24.83;23.33;;;;;;;;;;5071986;28;20496;-79
2023/09/08 04:10:17;;;;;;;25.37;23.87;;;;;;;;;;5072774;28;20448;-79
2023/09/08 04:12:45;;;;;;;27.03;25.20;;;;;;;;;;5072571;28;20416;-79
2023/09/08 04:15:12;;;;;;;25.67;23.57;;;;;;;;;;5073184;28;20450;-79
2023/09/08 04:17:40;;;;;;;25.87;24.33;;;;;;;;;;5072727;28;20951;-79
2023/09/08 04:20:08;;;;;;;25.83;24.33;;;;;;;;;;5073274;28;20470;-79
2023/09/08 04:22:36;;;;;;;25.67;24.00;;;;;;;;;;5072438;28;20409;-78
2023/09/08 04:25:05;;;;;;;25.13;23.53;;;;;;;;;;5072429;28;20450;-78
2023/09/08 04:27:33;;;;;;;25.70;24.00;;;;;;;;;;5072167;28;20592;-80
2023/09/08 04:30:00;;;;;;;25.47;23.97;;;;;;;;;;5072495;28;20480;-78
2023/09/08 04:32:27;;;;;;;25.90;24.30;;;;;;;;;;5072386;28;20438;-79
2023/09/08 04:34:55;;;;;;;25.40;23.80;;;;;;;;;;5072571;28;20444;-79
2023/09/08 04:37:22;;;;;;;26.20;24.57;;;;;;;;;;5071816;28;21393;-79
2023/09/08 04:39:50;;;;;;;25.43;23.80;;;;;;;;;;5073292;28;20494;-78
2023/09/08 04:42:17;;;;;;;24.80;23.40;;;;;;;;;;5050860;28;20831;-78
2023/09/08 04:44:45;;;;;;;25.30;23.70;;;;;;;;;;5059271;28;20465;-78
2023/09/08 04:47:13;;;;;;;26.07;24.00;;;;;;;;;;5074458;28;20478;-79
2023/09/08 04:49:40;;;;;;;25.50;23.90;;;;;;;;;;5053552;28;20457;-79
2023/09/08 04:52:08;;;;;;;25.87;24.27;;;;;;;;;;5053975;28;20429;-79
2023/09/08 04:54:35;;;;;;;26.93;25.23;;;;;;;;;;5052800;28;20421;-79
2023/09/08 04:57:02;;;;;;;26.00;24.20;;;;;;;;;;5052924;28;20451;-79
2023/09/08 04:59:29;;;;;;;24.87;23.27;;;;;;;;;;5068843;28;20887;-79
2023/09/08 05:01:56;;;;;;;26.17;23.97;;;;;;;;;;5072227;28;20461;-79
2023/09/08 05:04:23;;;;;;;25.43;23.83;;;;;;;;;;5063449;28;20928;-78
2023/09/08 05:06:50;;;;;;;25.23;23.73;;;;;;;;;;5068638;28;20489;-79
2023/09/08 05:09:19;;;;;;;26.50;24.70;;;;;;;;;;5059028;28;20491;-78
2023/09/08 05:11:46;;;;;;;25.63;23.93;;;;;;;;;;5057207;28;20811;-79
2023/09/08 05:14:13;;;;;;;27.13;25.20;;;;;;;;;;5059256;28;20451;-78
2023/09/08 05:16:45;;;;;;;25.67;24.00;;;;;;;;;;5076895;28;21071;-79
2023/09/08 05:19:13;;;;;;;25.20;23.50;;;;;;;;;;5076637;28;20477;-79
2023/09/08 05:21:41;;;;;;;25.10;23.50;;;;;;;;;;5075334;28;20476;-78
2023/09/08 05:24:08;;;;;;;26.93;25.03;;;;;;;;;;5078217;28;20496;-82
2023/09/08 05:26:39;;;;;;;27.43;25.57;;;;;;;;;;5078545;28;20460;-82
2023/09/08 05:29:06;;;;;;;26.20;24.40;;;;;;;;;;5077466;28;20986;-82
2023/09/08 05:31:33;;;;;;;26.63;24.70;;;;;;;;;;5078720;28;20464;-82
2023/09/08 05:34:03;;;;;;;26.50;24.80;;;;;;;;;;5078687;28;20412;-82
2023/09/08 05:36:32;;;;;;;25.03;23.50;;;;;;;;;;5080499;28;20440;-83
2023/09/08 05:38:59;;;;;;;24.63;23.03;;;;;;;;;;5079061;28;20473;-83
2023/09/08 05:41:26;;;;;;;24.63;23.03;;;;;;;;;;5078521;28;20400;-82
2023/09/08 05:43:55;;;;;;;25.80;24.20;;;;;;;;;;5077113;28;20965;-83
2023/09/08 05:46:22;;;;;;;25.57;23.77;;;;;;;;;;5076906;28;20453;-83
2023/09/08 05:48:49;;;;;;;25.90;24.13;;;;;;;;;;5077315;28;20508;-83
2023/09/08 05:51:16;;;;;;;25.47;23.67;;;;;;;;;;5077249;28;20431;-82
2023/09/08 05:53:43;;;;;;;24.23;22.60;;;;;;;;;;5076928;28;20446;-82
2023/09/08 05:56:10;;;;;;;24.80;23.20;;;;;;;;;;5076721;28;20427;-83
2023/09/08 05:58:37;;;;;;;23.53;22.03;;;;;;;;;;5076880;28;20499;-82
2023/09/08 06:01:06;;;;;;;22.90;21.47;;;;;;;;;;5076743;28;20771;-82
2023/09/08 06:03:34;;;;;;;24.07;22.40;;;;;;;;;;5077766;28;20430;-82
2023/09/08 06:06:01;;;;;;;23.53;22.13;;;;;;;;;;5076751;28;20438;-82
2023/09/08 06:08:28;;;;;;;23.87;22.37;;;;;;;;;;5074957;28;20460;-82
2023/09/08 06:10:55;;;;;;;24.40;22.87;;;;;;;;;;5076025;28;20443;-83
2023/09/08 06:13:22;;;;;;;24.07;22.60;;;;;;;;;;5076207;28;20428;-83
2023/09/08 06:15:49;;;;;;;25.23;23.67;;;;;;;;;;5057798;28;20432;-82
2023/09/08 06:18:17;;;;;;;23.13;21.63;;;;;;;;;;5056228;28;20454;-82
2023/09/08 06:20:47;;;;;;;23.90;22.40;;;;;;;;;;5056391;28;20925;-83
2023/09/08 06:23:14;;;;;;;22.90;21.40;;;;;;;;;;5056823;28;20502;-83
2023/09/08 06:25:42;;;;;;;24.00;22.60;;;;;;;;;;5070991;28;20450;-82
2023/09/08 06:28:09;;;;;;;23.20;21.80;;;;;;;;;;5056728;28;20490;-83
2023/09/08 06:30:36;;;;;;;23.53;22.13;;;;;;;;;;5057924;28;20474;-82
2023/09/08 06:33:03;;;;;;;23.90;22.30;;;;;;;;;;5065330;28;20466;-82
2023/09/08 06:35:33;;;;;;;23.20;21.90;;;;;;;;;;5070619;28;20447;-82
2023/09/08 06:38:00;;;;;;;23.53;22.13;;;;;;;;;;5074876;28;20424;-82
2023/09/08 06:40:28;;;;;;;22.50;21.13;;;;;;;;;;5061062;28;20483;-82
2023/09/08 06:42:55;;;;;;;24.20;22.70;;;;;;;;;;5063902;28;20468;-83
2023/09/08 06:45:22;;;;;;;23.80;22.20;;;;;;;;;;5056622;28;20431;-82
2023/09/08 06:47:50;;;;;;;24.63;23.03;;;;;;;;;;5054052;28;20464;-82
2023/09/08 06:50:17;;;;;;;23.97;22.43;;;;;;;;;;5056271;28;20479;-82
2023/09/08 06:52:46;;;;;;;24.40;22.50;;;;;;;;;;5056561;28;20455;-82
2023/09/08 06:55:16;;;;;;;23.10;21.70;;;;;;;;;;5056187;28;20463;-82
2023/09/08 06:57:43;;;;;;;24.07;22.67;;;;;;;;;;5055896;28;20549;-82
2023/09/08 07:00:11;;;;;;;23.77;22.37;;;;;;;;;;5056769;28;20449;-83
2023/09/08 07:02:38;;;;;;;23.73;22.23;;;;;;;;;;5056679;28;20461;-84
2023/09/08 07:05:07;;;;;;;24.53;23.13;;;;;;;;;;5056773;28;20425;-82
2023/09/08 07:07:35;;;;;;;24.60;23.03;;;;;;;;;;5055178;28;20464;-81
2023/09/08 07:10:04;;;;;;;24.70;23.30;;;;;;;;;;5060987;28;20469;-83
2023/09/08 07:12:31;;;;;;;24.80;23.03;;;;;;;;;;5075539;28;20964;-82
2023/09/08 07:14:58;;;;;;;23.70;22.30;;;;;;;;;;5074833;28;20449;-82
2023/09/08 07:17:25;;;;;;;24.93;23.50;;;;;;;;;;5074517;28;20417;-82
2023/09/08 07:19:52;;;;;;;22.63;21.33;;;;;;;;;;5074704;28;20472;-82
2023/09/08 07:22:19;;;;;;;25.20;23.60;;;;;;;;;;5075447;28;21222;-83
2023/09/08 07:24:47;;;;;;;24.97;23.30;;;;;;;;;;5069261;28;20489;-82
2023/09/08 07:27:15;;;;;;;25.07;23.47;;;;;;;;;;5073502;28;20488;-82
2023/09/08 07:29:42;;;;;;;24.33;22.77;;;;;;;;;;5074057;28;20993;-82
2023/09/08 07:32:10;;;;;;;24.50;22.90;;;;;;;;;;5073944;28;20420;-82
2023/09/08 07:34:37;;;;;;;25.30;23.60;;;;;;;;;;5073786;28;20421;-83
2023/09/08 07:37:04;;;;;;;25.07;23.37;;;;;;;;;;5072865;28;20465;-82
2023/09/08 07:39:32;;;;;;;24.13;22.63;;;;;;;;;;5073807;28;20475;-83
2023/09/08 07:41:59;;;;;;;24.60;23.10;;;;;;;;;;5073663;28;20432;-82
2023/09/08 07:44:28;;;;;;;25.17;23.47;;;;;;;;;;5071878;28;20457;-83
2023/09/08 07:46:56;;;;;;;24.30;22.80;;;;;;;;;;5072409;28;20438;-81
2023/09/08 07:49:23;;;;;;;24.93;23.33;;;;;;;;;;5072877;28;20863;-82
2023/09/08 07:51:51;;;;;;;25.00;23.23;;;;;;;;;;5072752;28;20427;-83
2023/09/08 07:54:18;;;;;;;24.83;23.27;;;;;;;;;;5072810;28;20449;-82
2023/09/08 07:56:45;;;;;;;24.60;22.90;;;;;;;;;;5071990;28;20445;-82
2023/09/08 07:59:12;;;;;;;24.50;23.00;;;;;;;;;;5072392;28;20440;-83
2023/09/08 08:01:40;;;;;;;24.50;23.10;;;;;;;;;;5075305;28;20443;-83
2023/09/08 08:04:07;;;;;;;24.77;23.27;;;;;;;;;;5078661;28;20463;-82
2023/09/08 08:06:34;;;;;;;24.13;22.70;;;;;;;;;;5078189;28;20447;-82
2023/09/08 08:09:01;;;;;;;24.30;22.70;;;;;;;;;;5079715;28;20887;-83
2023/09/08 08:11:28;;;;;;;24.97;23.27;;;;;;;;;;5080094;28;20457;-83
2023/09/08 08:13:57;;;;;;;25.93;24.23;;;;;;;;;;5084161;28;20442;-82
2023/09/08 08:16:24;;;;;;;24.50;22.97;;;;;;;;;;5073926;28;20996;-83
2023/09/08 08:18:52;;;;;;;23.93;22.50;;;;;;;;;;5064648;28;20508;-84
2023/09/08 08:21:19;;;;;;;24.83;23.37;;;;;;;;;;5063709;28;20454;-83
2023/09/08 08:23:46;;;;;;;24.07;22.57;;;;;;;;;;5062107;28;20462;-84
2023/09/08 08:26:13;;;;;;;25.50;23.90;;;;;;;;;;5059947;28;20434;-84
2023/09/08 08:28:42;;;;;;;25.83;24.23;;;;;;;;;;5060390;28;20495;-83
2023/09/08 08:31:09;;;;;;;26.40;24.80;;;;;;;;;;5060172;28;20405;-83
2023/09/08 08:33:37;;;;;;;25.80;23.90;;;;;;;;;;5063238;28;20463;-83
2023/09/08 08:36:05;;;;;;;26.50;24.80;;;;;;;;;;5063889;28;20441;-85
2023/09/08 08:38:32;;;;;;;25.37;23.87;;;;;;;;;;5063671;28;20424;-84
2023/09/08 08:41:03;;;;;;;26.40;24.50;;;;;;;;;;5064480;28;20454;-82
2023/09/08 08:43:31;;;;;;;26.93;25.07;;;;;;;;;;5065185;28;20401;-82
2023/09/08 08:46:00;;;;;;;26.17;24.57;;;;;;;;;;5065771;28;20430;-82
2023/09/08 08:48:27;;;;;;;25.20;23.70;;;;;;;;;;5066044;28;20490;-83
2023/09/08 08:50:55;;;;;;;25.63;24.10;;;;;;;;;;5075572;28;20470;-83
2023/09/08 08:53:23;;;;;;;25.63;24.13;;;;;;;;;;5082127;28;20469;-83
2023/09/08 08:55:51;;;;;;;25.77;24.17;;;;;;;;;;5081726;28;20428;-82
2023/09/08 08:58:21;;;;;;;26.80;25.10;;;;;;;;;;5080537;28;20445;-81
2023/09/08 09:00:49;;;;;;;26.10;24.50;;;;;;;;;;5081087;28;20457;-82
2023/09/08 09:03:17;;;;;;;26.80;25.10;;;;;;;;;;5079387;28;20414;-82
2023/09/08 09:05:45;;;;;;;26.00;24.47;;;;;;;;;;5080673;28;20438;-81
2023/09/08 09:08:12;;;;;;;26.80;25.10;;;;;;;;;;5079326;28;20978;-82
2023/09/08 09:10:41;;;;;;;27.17;25.50;;;;;;;;;;5080501;28;20441;-82
2023/09/08 09:13:08;;;;;;;26.67;25.07;;;;;;;;;;5059422;28;20428;-83
2023/09/08 09:15:35;;;;;;;27.50;25.80;;;;;;;;;;5060184;28;20429;-82
2023/09/08 09:18:06;;;;;;;26.03;24.43;;;;;;;;;;5059630;28;20550;-82
2023/09/08 09:20:33;;;;;;;27.67;25.93;;;;;;;;;;5061254;28;20474;-82
2023/09/08 09:23:00;;;;;;;25.67;24.10;;;;;;;;;;5068798;28;20441;-82
2023/09/08 09:25:29;;;;;;;26.97;25.07;;;;;;;;;;5060425;28;20454;-83
2023/09/08 09:27:58;;;;;;;27.13;25.43;;;;;;;;;;5059761;28;20978;-82
2023/09/08 09:30:25;;;;;;;26.40;24.80;;;;;;;;;;5059307;28;20475;-83
2023/09/08 09:33:00;;;;;;;25.90;24.30;;;;;;;;;;5060984;28;20465;-83
2023/09/08 09:35:40;;;;;;;25.57;23.90;;;;;;;;;;5064878;28;20572;-82
2023/09/08 09:38:08;;;;;;;24.90;23.30;;;;;;;;;;5079117;28;20434;-83
2023/09/08 09:40:35;;;;;;;26.17;24.50;;;;;;;;;;5078206;28;20502;-82
2023/09/08 09:43:04;;;;;;;26.67;24.87;;;;;;;;;;5060334;28;20782;-81
2023/09/08 09:45:31;;;;;;;26.00;24.30;;;;;;;;;;5060979;28;20450;-80
2023/09/08 09:47:58;;;;;;;26.10;24.40;;;;;;;;;;5060271;28;20497;-83
2023/09/08 09:50:30;;;;;;;27.20;25.43;;;;;;;;;;5063009;28;20479;-83
2023/09/08 09:52:59;;;;;;;25.97;24.37;;;;;;;;;;5080156;28;20454;-82
2023/09/08 09:55:27;;;;;;;26.37;24.67;;;;;;;;;;5080272;28;20475;-84
2023/09/08 09:57:57;;;;;;;27.37;25.60;;;;;;;;;;5078981;28;20427;-83
2023/09/08 10:00:26;;;;;;;27.23;25.57;;;;;;;;;;5060375;28;20489;-82
2023/09/08 10:02:53;;;;;;;27.50;25.70;;;;;;;;;;5076541;28;20481;-82
2023/09/08 10:05:21;;;;;;;27.90;25.90;;;;;;;;;;5080736;28;20445;-82
2023/09/08 10:07:48;;;;;;;27.80;26.10;;;;;;;;;;5080372;28;20449;-81
2023/09/08 10:10:16;;;;;;;26.87;25.13;;;;;;;;;;5081085;28;20468;-82
2023/09/08 10:12:44;;;;;;;27.43;25.73;;;;;;;;;;5080423;28;20419;-83
2023/09/08 10:15:12;;;;;;;27.40;25.70;;;;;;;;;;5080543;28;20440;-83
2023/09/08 10:17:42;;;;;;;26.63;24.93;;;;;;;;;;5081062;28;20450;-81
2023/09/08 10:20:11;;;;;;;28.60;26.70;;;;;;;;;;5080631;28;20468;-82
2023/09/08 10:22:40;;;;;;;28.10;26.20;;;;;;;;;;5074614;28;20956;-82
2023/09/08 10:25:08;;;;;;;27.33;25.70;;;;;;;;;;5081160;28;20438;-83
2023/09/08 10:27:36;;;;;;;28.53;26.63;;;;;;;;;;5078796;28;20449;-83
2023/09/08 10:30:04;;;;;;;27.23;25.43;;;;;;;;;;5081385;28;20487;-82
2023/09/08 10:32:32;;;;;;;26.80;25.00;;;;;;;;;;5080359;28;20532;-81
2023/09/08 10:35:02;;;;;;;26.50;24.90;;;;;;;;;;5081008;28;20510;-82
2023/09/08 10:37:30;;;;;;;26.50;24.60;;;;;;;;;;5080398;28;20446;-82
2023/09/08 10:39:57;;;;;;;27.30;25.50;;;;;;;;;;5079760;28;20477;-82
2023/09/08 10:42:27;;;;;;;26.73;24.77;;;;;;;;;;5080809;28;20453;-83
2023/09/08 10:44:58;;;;;;;26.80;24.90;;;;;;;;;;5079836;28;20455;-81
2023/09/08 10:47:26;;;;;;;26.97;25.00;;;;;;;;;;5079404;28;20448;-83
2023/09/08 10:49:54;;;;;;;25.90;24.20;;;;;;;;;;5070907;28;20585;-83
2023/09/08 10:52:23;;;;;;;26.60;24.70;;;;;;;;;;5076838;28;20478;-85
2023/09/08 10:54:51;;;;;;;26.60;24.90;;;;;;;;;;5059416;28;20454;-85
2023/09/08 10:57:19;;;;;;;27.70;25.70;;;;;;;;;;5066235;28;20457;-85
2023/09/08 10:59:52;;;;;;;26.23;24.53;;;;;;;;;;5071146;28;20471;-82
2023/09/08 11:02:35;;;;;;;25.63;24.03;;;;;;;;;;5060208;28;20933;-83
2023/09/08 11:05:04;;;;;;;27.37;25.57;;;;;;;;;;5059941;28;20435;-82
2023/09/08 11:07:33;;;;;;;28.10;26.40;;;;;;;;;;5077703;28;20470;-83
2023/09/08 11:10:00;;;;;;;28.10;26.10;;;;;;;;;;5077324;28;20501;-82
2023/09/08 11:12:28;;;;;;;27.90;26.17;;;;;;;;;;5070676;28;20461;-83
2023/09/08 11:14:55;;;;;;;27.03;25.00;;;;;;;;;;5079560;28;20515;-82
2023/09/08 11:17:22;;;;;;;27.63;25.63;;;;;;;;;;5078947;28;20470;-83
2023/09/08 11:19:50;;;;;;;27.13;25.30;;;;;;;;;;5063465;28;20478;-83
2023/09/08 11:22:18;;;;;;;27.10;25.30;;;;;;;;;;5059553;28;20458;-82
2023/09/08 11:24:46;;;;;;;26.57;24.87;;;;;;;;;;5072057;28;20456;-82
2023/09/08 11:27:13;;;;;;;27.30;25.70;;;;;;;;;;5074735;28;20452;-82
2023/09/08 11:29:40;;;;;;;26.93;25.00;;;;;;;;;;5067296;28;20495;-83
2023/09/08 11:32:08;;;;;;;26.93;25.27;;;;;;;;;;5074425;28;20964;-82
2023/09/08 11:34:35;;;;;;;27.93;25.67;;;;;;;;;;5071047;28;21168;-82
2023/09/08 11:37:07;;;;;;;27.33;25.40;;;;;;;;;;5058158;28;20446;-82
2023/09/08 11:39:37;;;;;;;28.50;26.63;;;;;;;;;;5064873;28;20488;-83
2023/09/08 11:42:05;;;;;;;26.60;24.93;;;;;;;;;;5057966;28;20455;-82
2023/09/08 11:44:33;;;;;;;27.17;25.47;;;;;;;;;;5058926;28;20451;-82
2023/09/08 11:47:00;;;;;;;27.77;25.93;;;;;;;;;;5078230;28;20468;-82
2023/09/08 11:49:27;;;;;;;27.50;25.70;;;;;;;;;;5074822;28;20497;-81
2023/09/08 11:51:54;;;;;;;25.43;23.83;;;;;;;;;;5059312;28;20466;-82
2023/09/08 11:54:21;;;;;;;26.67;25.07;;;;;;;;;;5061162;28;20930;-81
2023/09/08 11:56:48;;;;;;;26.50;24.80;;;;;;;;;;5061059;28;20413;-81
2023/09/08 11:59:17;;;;;;;27.10;25.30;;;;;;;;;;5061170;28;20461;-80
2023/09/08 12:01:44;;;;;;;26.60;25.00;;;;;;;;;;5063450;28;20439;-83
2023/09/08 12:04:18;;;;;;;27.70;26.00;;;;;;;;;;5061074;28;21032;-81
2023/09/08 12:06:45;;;;;;;27.20;25.50;;;;;;;;;;5063520;28;20458;-82
2023/09/08 12:09:13;;;;;;;30.30;28.40;;;;;;;;;;5062024;28;20502;-83
2023/09/08 12:11:42;;;;;;;27.07;24.93;;;;;;;;;;5060296;28;20478;-83
2023/09/08 12:14:10;;;;;;;28.70;26.90;;;;;;;;;;5061063;28;20433;-82
2023/09/08 12:16:38;;;;;;;28.27;26.33;;;;;;;;;;5060593;28;20477;-82
2023/09/08 12:19:06;;;;;;;27.90;26.00;;;;;;;;;;5058682;28;20448;-82
2023/09/08 12:21:33;;;;;;;27.40;25.63;;;;;;;;;;5058540;28;20537;-82
2023/09/08 12:24:00;;;;;;;27.73;25.93;;;;;;;;;;5057743;28;20434;-81
2023/09/08 12:26:27;;;;;;;62.97;58.17;;;;;;;;;;5071624;28;20848;-82
2023/09/08 12:28:54;;;;;;;49.03;45.30;;;;;;;;;;5080559;28;20500;-82
2023/09/08 12:31:22;;;;;;;48.47;44.77;;;;;;;;;;5078498;28;20511;-81
2023/09/08 12:33:50;;;;;;;40.70;37.30;;;;;;;;;;5078713;28;20496;-83
2023/09/08 12:36:20;;;;;;;43.80;40.50;;;;;;;;;;5078075;28;20424;-83
2023/09/08 12:38:52;;;;;;;32.37;30.17;;;;;;;;;;5078543;28;20461;-82
2023/09/08 12:41:19;;;;;;;40.27;37.43;;;;;;;;;;5077541;28;20477;-84
2023/09/08 12:43:46;;;;;;;46.97;43.53;;;;;;;;;;5078535;28;20434;-83
2023/09/08 12:46:13;;;;;;;42.10;39.00;;;;;;;;;;5077974;28;21253;-84
2023/09/08 12:48:40;;;;;;;42.97;40.00;;;;;;;;;;5078384;28;20468;-83
2023/09/08 12:51:09;;;;;;;43.07;40.10;;;;;;;;;;5078491;28;20441;-83
2023/09/08 12:53:36;;;;;;;41.73;38.63;;;;;;;;;;5078373;28;20448;-83
2023/09/08 12:56:03;;;;;;;36.27;33.73;;;;;;;;;;5078137;28;20420;-84
2023/09/08 12:58:30;;;;;;;45.90;42.07;;;;;;;;;;5078077;28;20424;-83
2023/09/08 13:00:57;;;;;;;46.47;43.03;;;;;;;;;;5078624;28;20445;-82
2023/09/08 13:03:24;;;;;;;40.07;37.13;;;;;;;;;;5078470;28;20422;-83
2023/09/08 13:05:51;;;;;;;52.83;48.87;;;;;;;;;;5078553;28;20438;-83
2023/09/08 13:08:19;;;;;;;42.27;39.20;;;;;;;;;;5077038;28;20457;-84
2023/09/08 13:10:45;;;;;;;33.10;30.83;;;;;;;;;;5077938;28;20460;-83
2023/09/08 13:13:15;;;;;;;42.77;39.67;;;;;;;;;;5076193;28;20482;-82
2023/09/08 13:15:42;;;;;;;42.83;39.80;;;;;;;;;;5078185;28;20418;-84
2023/09/08 13:18:09;;;;;;;49.80;46.10;;;;;;;;;;5076631;28;20775;-83
2023/09/08 13:20:36;;;;;;;50.20;46.27;;;;;;;;;;5078111;28;20959;-83
2023/09/08 13:23:05;;;;;;;31.40;29.23;;;;;;;;;;5077610;28;20925;-83
2023/09/08 13:25:33;;;;;;;55.63;51.40;;;;;;;;;;5078789;28;21211;-83
2023/09/08 13:28:00;;;;;;;37.67;35.07;;;;;;;;;;5077640;28;20956;-82
2023/09/08 13:30:28;;;;;;;29.53;27.60;;;;;;;;;;5077861;28;20489;-83
2023/09/08 13:32:56;;;;;;;34.67;32.23;;;;;;;;;;5077869;28;20420;-83
2023/09/08 13:35:23;;;;;;;27.90;26.27;;;;;;;;;;5078145;28;20474;-82
2023/09/08 13:37:50;;;;;;;32.23;30.13;;;;;;;;;;5077258;28;20427;-84
2023/09/08 13:40:17;;;;;;;38.00;35.23;;;;;;;;;;5078105;28;20962;-84
2023/09/08 13:42:45;;;;;;;41.97;38.83;;;;;;;;;;5078052;28;20476;-84
2023/09/08 13:45:12;;;;;;;37.77;35.10;;;;;;;;;;5077272;28;20454;-83
2023/09/08 13:47:39;;;;;;;36.10;33.50;;;;;;;;;;5067501;28;20458;-83
2023/09/08 13:50:09;;;;;;;42.90;39.87;;;;;;;;;;5063257;28;20486;-83
2023/09/08 13:52:36;;;;;;;56.33;51.90;;;;;;;;;;5061824;28;20467;-83
2023/09/08 13:55:03;;;;;;;38.13;35.47;;;;;;;;;;5059738;28;20457;-83
2023/09/08 13:57:30;;;;;;;58.60;54.17;;;;;;;;;;5073525;28;20490;-83
2023/09/08 13:59:59;;;;;;;29.87;27.83;;;;;;;;;;5076890;28;20451;-83
2023/09/08 14:02:26;;;;;;;39.20;36.20;;;;;;;;;;5075947;28;20445;-83
2023/09/08 14:04:53;;;;;;;38.57;35.93;;;;;;;;;;5077884;28;20465;-83
2023/09/08 14:07:20;;;;;;;32.97;30.70;;;;;;;;;;5076225;28;20483;-83
2023/09/08 14:09:47;;;;;;;39.10;36.40;;;;;;;;;;5076956;28;20872;-84
2023/09/08 14:12:15;;;;;;;40.03;37.00;;;;;;;;;;5077540;28;20430;-83
2023/09/08 14:14:42;;;;;;;40.83;37.80;;;;;;;;;;5077023;28;20449;-83
2023/09/08 14:17:10;;;;;;;28.33;26.53;;;;;;;;;;5076452;28;20841;-83
2023/09/08 14:19:37;;;;;;;40.77;37.53;;;;;;;;;;5076806;28;20560;-83